<?xml version="1.0" encoding="UTF-8" standalone="no" ?>
<gpx xmlns="http://www.topografix.com/GPX/1/1" xmlns:xsi="http://www.w3.org/2001/XMLSchema-instance" xsi:schemaLocation="http://www.topografix.com/GPX/1/1 http://www.topografix.com/GPX/1/1/gpx.xsd" version="1.1" creator="VisuGPX - https://www.visugpx.com">
  <metadata>
    <name>Triton 2026 Pedestre 5kms</name>
    <desc><![CDATA[Parcours avec jeux d\'enquête]]></desc>
  </metadata>
  <wpt lat="45.4053" lon="5.54612">
    <ele>482.1</ele>
    <name><![CDATA[Ravitaillement]]></name>
    <desc><![CDATA[]]></desc>
  </wpt>
  <trk>
    <name><![CDATA[TRITON 2026 - Pedestre Jeux Enquete-23693713]]></name>
    <trkseg>
      <trkpt lat="45.41279" lon="5.55585">
        <ele>470</ele>
        <time>2026-05-25T08:51:40Z</time>
      </trkpt>
      <trkpt lat="45.41255" lon="5.55585">
        <ele>471</ele>
        <time>2026-05-25T08:51:59Z</time>
      </trkpt>
      <trkpt lat="45.41247" lon="5.55577">
        <ele>471</ele>
        <time>2026-05-25T08:52:07Z</time>
      </trkpt>
      <trkpt lat="45.41222" lon="5.55543">
        <ele>471</ele>
        <time>2026-05-25T08:52:35Z</time>
      </trkpt>
      <trkpt lat="45.41201" lon="5.55526">
        <ele>471</ele>
        <time>2026-05-25T08:52:54Z</time>
      </trkpt>
      <trkpt lat="45.412" lon="5.55524">
        <ele>471</ele>
        <time>2026-05-25T08:52:55Z</time>
      </trkpt>
      <trkpt lat="45.41168" lon="5.55567">
        <ele>472</ele>
        <time>2026-05-25T08:53:31Z</time>
      </trkpt>
      <trkpt lat="45.41165" lon="5.55572">
        <ele>472</ele>
        <time>2026-05-25T08:53:34Z</time>
      </trkpt>
      <trkpt lat="45.41163" lon="5.55576">
        <ele>472</ele>
        <time>2026-05-25T08:53:37Z</time>
      </trkpt>
      <trkpt lat="45.41152" lon="5.55593">
        <ele>472</ele>
        <time>2026-05-25T08:53:50Z</time>
      </trkpt>
      <trkpt lat="45.41063" lon="5.55695">
        <ele>475</ele>
        <time>2026-05-25T08:55:22Z</time>
      </trkpt>
      <trkpt lat="45.4106" lon="5.55699">
        <ele>475</ele>
        <time>2026-05-25T08:55:25Z</time>
      </trkpt>
      <trkpt lat="45.41055" lon="5.55712">
        <ele>476</ele>
        <time>2026-05-25T08:55:33Z</time>
      </trkpt>
      <trkpt lat="45.41048" lon="5.55713">
        <ele>476</ele>
        <time>2026-05-25T08:55:39Z</time>
      </trkpt>
      <trkpt lat="45.41039" lon="5.55713">
        <ele>477</ele>
        <time>2026-05-25T08:55:46Z</time>
      </trkpt>
      <trkpt lat="45.41035" lon="5.55725">
        <ele>477</ele>
        <time>2026-05-25T08:55:54Z</time>
      </trkpt>
      <trkpt lat="45.41032" lon="5.5573">
        <ele>478</ele>
        <time>2026-05-25T08:55:57Z</time>
      </trkpt>
      <trkpt lat="45.40998" lon="5.55725">
        <ele>479</ele>
        <time>2026-05-25T08:56:25Z</time>
      </trkpt>
      <trkpt lat="45.40994" lon="5.55724">
        <ele>480</ele>
        <time>2026-05-25T08:56:28Z</time>
      </trkpt>
      <trkpt lat="45.40983" lon="5.55684">
        <ele>478</ele>
        <time>2026-05-25T08:56:52Z</time>
      </trkpt>
      <trkpt lat="45.40973" lon="5.55656">
        <ele>477</ele>
        <time>2026-05-25T08:57:10Z</time>
      </trkpt>
      <trkpt lat="45.40964" lon="5.5564">
        <ele>477</ele>
        <time>2026-05-25T08:57:21Z</time>
      </trkpt>
      <trkpt lat="45.40942" lon="5.55609">
        <ele>477</ele>
        <time>2026-05-25T08:57:46Z</time>
      </trkpt>
      <trkpt lat="45.40913" lon="5.55582">
        <ele>476</ele>
        <time>2026-05-25T08:58:14Z</time>
      </trkpt>
      <trkpt lat="45.40876" lon="5.55564">
        <ele>476</ele>
        <time>2026-05-25T08:58:45Z</time>
      </trkpt>
      <trkpt lat="45.40845" lon="5.55552">
        <ele>476</ele>
        <time>2026-05-25T08:59:11Z</time>
      </trkpt>
      <trkpt lat="45.40796" lon="5.55527">
        <ele>477</ele>
        <time>2026-05-25T08:59:52Z</time>
      </trkpt>
      <trkpt lat="45.40785" lon="5.55524">
        <ele>478</ele>
        <time>2026-05-25T09:00:01Z</time>
      </trkpt>
      <trkpt lat="45.40764" lon="5.55518">
        <ele>478</ele>
        <time>2026-05-25T09:00:18Z</time>
      </trkpt>
      <trkpt lat="45.40725" lon="5.55522">
        <ele>479</ele>
        <time>2026-05-25T09:00:50Z</time>
      </trkpt>
      <trkpt lat="45.40674" lon="5.5554">
        <ele>479</ele>
        <time>2026-05-25T09:01:32Z</time>
      </trkpt>
      <trkpt lat="45.40639" lon="5.55558">
        <ele>482</ele>
        <time>2026-05-25T09:02:02Z</time>
      </trkpt>
      <trkpt lat="45.40628" lon="5.55553">
        <ele>482</ele>
        <time>2026-05-25T09:02:11Z</time>
      </trkpt>
      <trkpt lat="45.40606" lon="5.55551">
        <ele>483</ele>
        <time>2026-05-25T09:02:29Z</time>
      </trkpt>
      <trkpt lat="45.40587" lon="5.5554">
        <ele>482</ele>
        <time>2026-05-25T09:02:45Z</time>
      </trkpt>
      <trkpt lat="45.40586" lon="5.5554">
        <ele>482</ele>
        <time>2026-05-25T09:02:46Z</time>
      </trkpt>
      <trkpt lat="45.40567" lon="5.55508">
        <ele>482</ele>
        <time>2026-05-25T09:03:09Z</time>
      </trkpt>
      <trkpt lat="45.40559" lon="5.55488">
        <ele>481</ele>
        <time>2026-05-25T09:03:22Z</time>
      </trkpt>
      <trkpt lat="45.40552" lon="5.55445">
        <ele>478</ele>
        <time>2026-05-25T09:03:47Z</time>
      </trkpt>
      <trkpt lat="45.40544" lon="5.55413">
        <ele>476</ele>
        <time>2026-05-25T09:04:06Z</time>
      </trkpt>
      <trkpt lat="45.40536" lon="5.55388">
        <ele>476</ele>
        <time>2026-05-25T09:04:22Z</time>
      </trkpt>
      <trkpt lat="45.40524" lon="5.55358">
        <ele>476</ele>
        <time>2026-05-25T09:04:41Z</time>
      </trkpt>
      <trkpt lat="45.40509" lon="5.55332">
        <ele>475</ele>
        <time>2026-05-25T09:05:00Z</time>
      </trkpt>
      <trkpt lat="45.40498" lon="5.55319">
        <ele>474</ele>
        <time>2026-05-25T09:05:11Z</time>
      </trkpt>
      <trkpt lat="45.40463" lon="5.55285">
        <ele>479</ele>
        <time>2026-05-25T09:05:45Z</time>
      </trkpt>
      <trkpt lat="45.40447" lon="5.55264">
        <ele>482</ele>
        <time>2026-05-25T09:06:03Z</time>
      </trkpt>
      <trkpt lat="45.4044" lon="5.55253">
        <ele>483</ele>
        <time>2026-05-25T09:06:11Z</time>
      </trkpt>
      <trkpt lat="45.40438" lon="5.55248">
        <ele>483</ele>
        <time>2026-05-25T09:06:14Z</time>
      </trkpt>
      <trkpt lat="45.40431" lon="5.55221">
        <ele>483</ele>
        <time>2026-05-25T09:06:31Z</time>
      </trkpt>
      <trkpt lat="45.4043" lon="5.55208">
        <ele>483</ele>
        <time>2026-05-25T09:06:38Z</time>
      </trkpt>
      <trkpt lat="45.40418" lon="5.55178">
        <ele>484</ele>
        <time>2026-05-25T09:06:57Z</time>
      </trkpt>
      <trkpt lat="45.40408" lon="5.55062">
        <ele>479</ele>
        <time>2026-05-25T09:08:03Z</time>
      </trkpt>
      <trkpt lat="45.40404" lon="5.55028">
        <ele>478</ele>
        <time>2026-05-25T09:08:22Z</time>
      </trkpt>
      <trkpt lat="45.40364" lon="5.54966">
        <ele>484</ele>
        <time>2026-05-25T09:09:10Z</time>
      </trkpt>
      <trkpt lat="45.40351" lon="5.54946">
        <ele>484</ele>
        <time>2026-05-25T09:09:25Z</time>
      </trkpt>
      <trkpt lat="45.40336" lon="5.54921">
        <ele>484</ele>
        <time>2026-05-25T09:09:43Z</time>
      </trkpt>
      <trkpt lat="45.40307" lon="5.54889">
        <ele>488</ele>
        <time>2026-05-25T09:10:13Z</time>
      </trkpt>
      <trkpt lat="45.40271" lon="5.54853">
        <ele>491</ele>
        <time>2026-05-25T09:10:48Z</time>
      </trkpt>
      <trkpt lat="45.40245" lon="5.54819">
        <ele>492</ele>
        <time>2026-05-25T09:11:16Z</time>
      </trkpt>
      <trkpt lat="45.4023" lon="5.54789">
        <ele>493</ele>
        <time>2026-05-25T09:11:37Z</time>
      </trkpt>
      <trkpt lat="45.40201" lon="5.54751">
        <ele>496</ele>
        <time>2026-05-25T09:12:09Z</time>
      </trkpt>
      <trkpt lat="45.4017" lon="5.54722">
        <ele>499</ele>
        <time>2026-05-25T09:12:38Z</time>
      </trkpt>
      <trkpt lat="45.40163" lon="5.5471">
        <ele>498</ele>
        <time>2026-05-25T09:12:47Z</time>
      </trkpt>
      <trkpt lat="45.40152" lon="5.54699">
        <ele>497</ele>
        <time>2026-05-25T09:12:58Z</time>
      </trkpt>
      <trkpt lat="45.4011" lon="5.54637">
        <ele>493</ele>
        <time>2026-05-25T09:13:46Z</time>
      </trkpt>
      <trkpt lat="45.4008" lon="5.54613">
        <ele>496</ele>
        <time>2026-05-25T09:14:14Z</time>
      </trkpt>
      <trkpt lat="45.4005" lon="5.54586">
        <ele>500</ele>
        <time>2026-05-25T09:14:42Z</time>
      </trkpt>
      <trkpt lat="45.40011" lon="5.54537">
        <ele>499</ele>
        <time>2026-05-25T09:15:24Z</time>
      </trkpt>
      <trkpt lat="45.39968" lon="5.54505">
        <ele>500</ele>
        <time>2026-05-25T09:16:03Z</time>
      </trkpt>
      <trkpt lat="45.39905" lon="5.54464">
        <ele>502</ele>
        <time>2026-05-25T09:16:58Z</time>
      </trkpt>
      <trkpt lat="45.39857" lon="5.54432">
        <ele>502</ele>
        <time>2026-05-25T09:17:41Z</time>
      </trkpt>
      <trkpt lat="45.39808" lon="5.5442">
        <ele>511</ele>
        <time>2026-05-25T09:18:20Z</time>
      </trkpt>
      <trkpt lat="45.39885" lon="5.54176">
        <ele>479</ele>
        <time>2026-05-25T09:20:51Z</time>
      </trkpt>
      <trkpt lat="45.39891" lon="5.54158">
        <ele>477</ele>
        <time>2026-05-25T09:21:02Z</time>
      </trkpt>
      <trkpt lat="45.39911" lon="5.54139">
        <ele>475</ele>
        <time>2026-05-25T09:21:21Z</time>
      </trkpt>
      <trkpt lat="45.39963" lon="5.54111">
        <ele>470</ele>
        <time>2026-05-25T09:22:06Z</time>
      </trkpt>
      <trkpt lat="45.40032" lon="5.54055">
        <ele>473</ele>
        <time>2026-05-25T09:23:09Z</time>
      </trkpt>
      <trkpt lat="45.40058" lon="5.54033">
        <ele>479</ele>
        <time>2026-05-25T09:23:34Z</time>
      </trkpt>
      <trkpt lat="45.40077" lon="5.54061">
        <ele>480</ele>
        <time>2026-05-25T09:23:55Z</time>
      </trkpt>
      <trkpt lat="45.40078" lon="5.54062">
        <ele>480</ele>
        <time>2026-05-25T09:23:56Z</time>
      </trkpt>
      <trkpt lat="45.40143" lon="5.54222">
        <ele>480</ele>
        <time>2026-05-25T09:25:40Z</time>
      </trkpt>
      <trkpt lat="45.40168" lon="5.54314">
        <ele>476</ele>
        <time>2026-05-25T09:26:36Z</time>
      </trkpt>
      <trkpt lat="45.40194" lon="5.54398">
        <ele>476</ele>
        <time>2026-05-25T09:27:27Z</time>
      </trkpt>
      <trkpt lat="45.40265" lon="5.54482">
        <ele>474</ele>
        <time>2026-05-25T09:28:41Z</time>
      </trkpt>
      <trkpt lat="45.40295" lon="5.54497">
        <ele>475</ele>
        <time>2026-05-25T09:29:07Z</time>
      </trkpt>
      <trkpt lat="45.40317" lon="5.54524">
        <ele>476</ele>
        <time>2026-05-25T09:29:30Z</time>
      </trkpt>
      <trkpt lat="45.40332" lon="5.54572">
        <ele>475</ele>
        <time>2026-05-25T09:30:00Z</time>
      </trkpt>
      <trkpt lat="45.40345" lon="5.54624">
        <ele>473</ele>
        <time>2026-05-25T09:30:31Z</time>
      </trkpt>
      <trkpt lat="45.40352" lon="5.54631">
        <ele>474</ele>
        <time>2026-05-25T09:30:37Z</time>
      </trkpt>
      <trkpt lat="45.40356" lon="5.54634">
        <ele>474</ele>
        <time>2026-05-25T09:30:41Z</time>
      </trkpt>
      <trkpt lat="45.40416" lon="5.54625">
        <ele>481</ele>
        <time>2026-05-25T09:31:29Z</time>
      </trkpt>
      <trkpt lat="45.40493" lon="5.54599">
        <ele>483</ele>
        <time>2026-05-25T09:32:33Z</time>
      </trkpt>
      <trkpt lat="45.4051" lon="5.54604">
        <ele>483</ele>
        <time>2026-05-25T09:32:47Z</time>
      </trkpt>
      <trkpt lat="45.40515" lon="5.54606">
        <ele>483</ele>
        <time>2026-05-25T09:32:51Z</time>
      </trkpt>
      <trkpt lat="45.4053" lon="5.54612">
        <ele>483</ele>
        <time>2026-05-25T09:33:03Z</time>
      </trkpt>
      <trkpt lat="45.40585" lon="5.54636">
        <ele>483</ele>
        <time>2026-05-25T09:33:49Z</time>
      </trkpt>
      <trkpt lat="45.40722" lon="5.54666">
        <ele>485</ele>
        <time>2026-05-25T09:35:40Z</time>
      </trkpt>
      <trkpt lat="45.40723" lon="5.54667">
        <ele>485</ele>
        <time>2026-05-25T09:35:41Z</time>
      </trkpt>
      <trkpt lat="45.40722" lon="5.54666">
        <ele>485</ele>
        <time>2026-05-25T09:35:42Z</time>
      </trkpt>
      <trkpt lat="45.40731" lon="5.54667">
        <ele>486</ele>
        <time>2026-05-25T09:35:50Z</time>
      </trkpt>
      <trkpt lat="45.40754" lon="5.54674">
        <ele>486</ele>
        <time>2026-05-25T09:36:08Z</time>
      </trkpt>
      <trkpt lat="45.4078" lon="5.5469">
        <ele>485</ele>
        <time>2026-05-25T09:36:31Z</time>
      </trkpt>
      <trkpt lat="45.40824" lon="5.54729">
        <ele>481</ele>
        <time>2026-05-25T09:37:13Z</time>
      </trkpt>
      <trkpt lat="45.4085" lon="5.5474">
        <ele>478</ele>
        <time>2026-05-25T09:37:34Z</time>
      </trkpt>
      <trkpt lat="45.40934" lon="5.54748">
        <ele>473</ele>
        <time>2026-05-25T09:38:42Z</time>
      </trkpt>
      <trkpt lat="45.40984" lon="5.54742">
        <ele>472</ele>
        <time>2026-05-25T09:39:22Z</time>
      </trkpt>
      <trkpt lat="45.41025" lon="5.54752">
        <ele>472</ele>
        <time>2026-05-25T09:39:55Z</time>
      </trkpt>
      <trkpt lat="45.41083" lon="5.54775">
        <ele>471</ele>
        <time>2026-05-25T09:40:43Z</time>
      </trkpt>
      <trkpt lat="45.41138" lon="5.54783">
        <ele>472</ele>
        <time>2026-05-25T09:41:28Z</time>
      </trkpt>
      <trkpt lat="45.41175" lon="5.54799">
        <ele>471</ele>
        <time>2026-05-25T09:41:59Z</time>
      </trkpt>
      <trkpt lat="45.41232" lon="5.54817">
        <ele>472</ele>
        <time>2026-05-25T09:42:45Z</time>
      </trkpt>
      <trkpt lat="45.4126" lon="5.54833">
        <ele>472</ele>
        <time>2026-05-25T09:43:09Z</time>
      </trkpt>
      <trkpt lat="45.41311" lon="5.54854">
        <ele>472</ele>
        <time>2026-05-25T09:43:52Z</time>
      </trkpt>
      <trkpt lat="45.41331" lon="5.54866">
        <ele>472</ele>
        <time>2026-05-25T09:44:09Z</time>
      </trkpt>
      <trkpt lat="45.41342" lon="5.54872">
        <ele>471</ele>
        <time>2026-05-25T09:44:19Z</time>
      </trkpt>
      <trkpt lat="45.41347" lon="5.54874">
        <ele>471</ele>
        <time>2026-05-25T09:44:23Z</time>
      </trkpt>
      <trkpt lat="45.41322" lon="5.5491">
        <ele>469</ele>
        <time>2026-05-25T09:44:51Z</time>
      </trkpt>
      <trkpt lat="45.41295" lon="5.54948">
        <ele>468</ele>
        <time>2026-05-25T09:45:22Z</time>
      </trkpt>
      <trkpt lat="45.41289" lon="5.5496">
        <ele>468</ele>
        <time>2026-05-25T09:45:30Z</time>
      </trkpt>
      <trkpt lat="45.41288" lon="5.54973">
        <ele>468</ele>
        <time>2026-05-25T09:45:37Z</time>
      </trkpt>
      <trkpt lat="45.41288" lon="5.54991">
        <ele>467</ele>
        <time>2026-05-25T09:45:48Z</time>
      </trkpt>
      <trkpt lat="45.41298" lon="5.5509">
        <ele>466</ele>
        <time>2026-05-25T09:46:44Z</time>
      </trkpt>
      <trkpt lat="45.41299" lon="5.55117">
        <ele>465</ele>
        <time>2026-05-25T09:46:59Z</time>
      </trkpt>
      <trkpt lat="45.41296" lon="5.55145">
        <ele>465</ele>
        <time>2026-05-25T09:47:15Z</time>
      </trkpt>
      <trkpt lat="45.41287" lon="5.55183">
        <ele>464</ele>
        <time>2026-05-25T09:47:37Z</time>
      </trkpt>
      <trkpt lat="45.41287" lon="5.5519">
        <ele>464</ele>
        <time>2026-05-25T09:47:41Z</time>
      </trkpt>
      <trkpt lat="45.41292" lon="5.5521">
        <ele>464</ele>
        <time>2026-05-25T09:47:53Z</time>
      </trkpt>
      <trkpt lat="45.41296" lon="5.55253">
        <ele>464</ele>
        <time>2026-05-25T09:48:18Z</time>
      </trkpt>
      <trkpt lat="45.41292" lon="5.55312">
        <ele>465</ele>
        <time>2026-05-25T09:48:51Z</time>
      </trkpt>
      <trkpt lat="45.41293" lon="5.55398">
        <ele>466</ele>
        <time>2026-05-25T09:49:39Z</time>
      </trkpt>
      <trkpt lat="45.41286" lon="5.55412">
        <ele>467</ele>
        <time>2026-05-25T09:49:49Z</time>
      </trkpt>
      <trkpt lat="45.41243" lon="5.55452">
        <ele>470</ele>
        <time>2026-05-25T09:50:30Z</time>
      </trkpt>
      <trkpt lat="45.41239" lon="5.55457">
        <ele>470</ele>
        <time>2026-05-25T09:50:34Z</time>
      </trkpt>
      <trkpt lat="45.41207" lon="5.55503">
        <ele>471</ele>
        <time>2026-05-25T09:51:11Z</time>
      </trkpt>
      <trkpt lat="45.41205" lon="5.55512">
        <ele>471</ele>
        <time>2026-05-25T09:51:16Z</time>
      </trkpt>
      <trkpt lat="45.41208" lon="5.55514">
        <ele>471</ele>
        <time>2026-05-25T09:51:19Z</time>
      </trkpt>
    </trkseg>
  </trk>
</gpx>